createdAt,value
2018-08-13T00:01:12.819Z,56.77
2018-08-13T00:03:41.768Z,57.79
2018-08-13T00:06:10.719Z,58.33
2018-08-13T00:08:39.651Z,57.33
2018-08-13T00:11:08.621Z,58.42
2018-08-13T00:13:37.555Z,59.24
2018-08-13T00:16:06.703Z,59.32
2018-08-13T00:18:35.623Z,59.11
2018-08-13T00:21:04.784Z,58.78
2018-08-13T00:23:33.699Z,59.17
2018-08-13T00:26:02.723Z,58.67
2018-08-13T00:28:31.651Z,58.76
2018-08-13T00:31:00.577Z,59.68
2018-08-13T00:33:29.796Z,59.01
2018-08-13T00:35:58.731Z,59.52
2018-08-13T00:38:27.645Z,60.36
2018-08-13T00:40:56.576Z,60.53
2018-08-13T00:43:25.487Z,61.04
2018-08-13T00:45:54.566Z,60.51
2018-08-13T00:48:23.480Z,60.15
2018-08-13T00:50:52.399Z,60.56
2018-08-13T00:53:21.363Z,60.73
2018-08-13T00:55:50.263Z,60.95
2018-08-13T00:58:19.170Z,60.42
2018-08-13T01:00:48.131Z,61.43
2018-08-13T01:03:17.048Z,60.69
2018-08-13T01:05:45.991Z,61.45
2018-08-13T01:08:14.918Z,61.91
2018-08-13T01:10:43.829Z,62.12
2018-08-13T01:13:12.796Z,62.45
2018-08-13T01:15:41.747Z,61.74
2018-08-13T01:18:10.667Z,61.73
2018-08-13T01:20:40.070Z,61.29
2018-08-13T01:23:08.981Z,62.20
2018-08-13T01:25:38.023Z,62.58
2018-08-13T01:28:06.940Z,62.96
2018-08-13T01:30:35.857Z,63.29
2018-08-13T01:33:04.856Z,62.33
2018-08-13T01:35:33.759Z,61.53
2018-08-13T01:38:02.684Z,62.92
2018-08-13T01:40:31.632Z,62.22
2018-08-13T01:43:00.571Z,62.75
2018-08-13T01:45:29.539Z,62.49
2018-08-13T01:47:58.524Z,63.02
2018-08-13T01:50:27.443Z,62.98
2018-08-13T01:52:56.370Z,63.39
2018-08-13T01:55:25.320Z,62.34
2018-08-13T01:57:54.636Z,63.86
2018-08-13T02:00:23.621Z,62.72
2018-08-13T02:02:52.532Z,63.52
2018-08-13T02:05:21.455Z,63.24
2018-08-13T02:07:50.380Z,64.07
2018-08-13T02:10:19.364Z,63.95
2018-08-13T02:12:48.504Z,64.11
2018-08-13T02:15:17.633Z,64.12
2018-08-13T02:17:46.556Z,64.08
2018-08-13T02:20:15.492Z,63.95
2018-08-13T02:22:44.469Z,64.75
2018-08-13T02:25:13.442Z,64.92
2018-08-13T02:27:42.444Z,64.40
2018-08-13T02:30:12.147Z,65.32
2018-08-13T02:32:41.169Z,65.67
2018-08-13T02:35:10.335Z,65.46
2018-08-13T02:37:39.864Z,65.63
2018-08-13T02:40:10.062Z,65.86
2018-08-13T02:42:39.184Z,66.12
2018-08-13T02:45:09.289Z,65.67
2018-08-13T02:47:38.320Z,65.70
2018-08-13T02:50:09.672Z,66.14
2018-08-13T02:52:38.834Z,65.57
2018-08-13T02:55:08.124Z,65.27
2018-08-13T02:57:37.055Z,65.58
2018-08-13T03:00:07.540Z,65.71
2018-08-13T03:02:36.648Z,66.30
2018-08-13T03:05:07.332Z,66.37
2018-08-13T03:07:36.238Z,66.51
2018-08-13T03:10:07.300Z,66.95
2018-08-13T03:12:36.728Z,66.77
2018-08-13T03:15:07.617Z,66.79
2018-08-13T03:17:36.548Z,67.25
2018-08-13T03:20:06.859Z,66.98
2018-08-13T03:22:35.816Z,67.31
2018-08-13T03:25:06.995Z,67.15
2018-08-13T03:27:35.940Z,67.97
2018-08-13T03:30:08.082Z,68.42
2018-08-13T03:32:37.462Z,68.47
2018-08-13T03:35:06.555Z,68.82
2018-08-13T03:37:35.476Z,69.01
2018-08-13T03:40:06.898Z,69.06
2018-08-13T03:42:35.846Z,68.43
2018-08-13T03:45:06.230Z,68.02
2018-08-13T03:47:35.169Z,67.79
2018-08-13T03:50:05.038Z,68.58
2018-08-13T03:52:33.963Z,68.27
2018-08-13T03:55:03.015Z,68.84
2018-08-13T03:57:31.930Z,68.14
2018-08-13T04:00:00.849Z,68.49
2018-08-13T04:02:29.908Z,67.90
2018-08-13T04:04:59.218Z,68.70
2018-08-13T04:07:28.455Z,69.00
2018-08-13T04:09:57.376Z,67.64
2018-08-13T04:12:26.327Z,68.41
2018-08-13T04:14:55.450Z,68.12
2018-08-13T04:17:24.394Z,68.96
2018-08-13T04:19:53.308Z,68.04
2018-08-13T04:22:22.248Z,67.33
2018-08-13T04:24:51.291Z,67.23
2018-08-13T04:27:20.211Z,68.18
2018-08-13T04:29:49.128Z,67.67
2018-08-13T04:32:18.050Z,67.63
2018-08-13T04:34:46.951Z,67.77
2018-08-13T04:37:15.989Z,67.54
2018-08-13T04:39:44.984Z,67.66
2018-08-13T04:42:13.925Z,67.18
2018-08-13T04:44:42.938Z,66.62
2018-08-13T04:47:11.875Z,66.45
2018-08-13T04:49:40.812Z,66.37
2018-08-13T04:52:09.904Z,68.03
2018-08-13T04:54:38.811Z,65.98
2018-08-13T04:57:07.703Z,66.43
2018-08-13T04:59:36.654Z,66.19
2018-08-13T05:02:05.570Z,65.52
2018-08-13T05:04:34.501Z,64.67
2018-08-13T05:07:03.444Z,64.66
2018-08-13T05:09:32.395Z,64.32
2018-08-13T05:12:01.364Z,63.71
2018-08-13T05:14:30.322Z,62.22
2018-08-13T05:16:59.255Z,61.04
2018-08-13T05:19:28.222Z,60.59
2018-08-13T05:21:57.216Z,59.98
2018-08-13T05:24:26.248Z,58.94
2018-08-13T05:26:55.295Z,59.01
2018-08-13T05:29:24.214Z,59.83
2018-08-13T05:31:53.224Z,58.65
2018-08-13T05:34:22.209Z,60.22
2018-08-13T05:36:51.167Z,59.02
2018-08-13T05:39:20.109Z,58.26
2018-08-13T05:41:49.027Z,57.36
2018-08-13T05:44:18.038Z,55.91
2018-08-13T05:46:47.063Z,55.10
2018-08-13T05:49:15.973Z,55.04
2018-08-13T05:51:44.883Z,53.00
2018-08-13T05:54:13.808Z,50.73
2018-08-13T05:56:42.757Z,49.72
2018-08-13T05:59:11.845Z,49.00
2018-08-13T06:01:40.794Z,48.07
2018-08-13T06:04:09.795Z,48.60
2018-08-13T06:06:38.711Z,46.70
2018-08-13T06:09:09.933Z,45.53
2018-08-13T06:11:38.949Z,42.64
2018-08-13T06:14:08.153Z,40.38
2018-08-13T06:16:37.298Z,39.44
2018-08-13T06:19:06.252Z,37.86
2018-08-13T06:21:35.213Z,37.09
2018-08-13T06:24:04.130Z,37.78
2018-08-13T06:26:33.068Z,38.02
2018-08-13T06:29:02.224Z,38.63
2018-08-13T06:31:31.324Z,38.31
2018-08-13T06:34:00.329Z,37.67
2018-08-13T06:36:29.235Z,37.36
2018-08-13T06:38:58.179Z,37.34
2018-08-13T06:41:27.114Z,34.86
2018-08-13T06:43:56.044Z,34.42
2018-08-13T06:46:25.006Z,33.54
2018-08-13T06:48:54.102Z,34.66
2018-08-13T06:51:23.146Z,33.37
2018-08-13T06:53:52.101Z,32.71
2018-08-13T06:56:21.025Z,34.38
2018-08-13T06:58:49.920Z,33.49
2018-08-13T07:01:18.822Z,32.59
2018-08-13T07:03:47.743Z,32.21
2018-08-13T07:06:16.835Z,31.22
2018-08-13T07:08:45.800Z,31.27
2018-08-13T07:11:14.719Z,29.29
2018-08-13T07:13:43.655Z,28.61
2018-08-13T07:16:12.577Z,29.74
2018-08-13T07:18:41.508Z,28.45
2018-08-13T07:21:10.453Z,28.29
2018-08-13T07:23:40.124Z,30.11
2018-08-13T07:26:09.116Z,30.04
2018-08-13T07:28:38.136Z,29.15
2018-08-13T07:31:07.132Z,30.13
2018-08-13T07:33:36.137Z,28.82
2018-08-13T07:36:05.098Z,27.43
2018-08-13T07:38:35.014Z,27.67
2018-08-13T07:41:05.235Z,27.77
2018-08-13T07:43:35.048Z,26.99
2018-08-13T07:46:04.598Z,27.38
2018-08-13T07:48:34.568Z,26.50
2018-08-13T07:51:04.588Z,27.68
2018-08-13T07:53:33.574Z,28.08
2018-08-13T07:56:02.503Z,26.38
2018-08-13T07:58:31.438Z,27.21
2018-08-13T08:01:00.484Z,26.29
2018-08-13T08:03:29.853Z,27.48
2018-08-13T08:05:58.784Z,27.30
2018-08-13T08:08:27.730Z,26.83
2018-08-13T08:10:56.867Z,26.60
2018-08-13T08:13:25.849Z,26.56
2018-08-13T08:15:54.772Z,24.99
2018-08-13T08:18:23.721Z,24.61
2018-08-13T08:20:52.693Z,25.96
2018-08-13T08:23:22.741Z,25.58
2018-08-13T08:25:52.654Z,25.69
2018-08-13T08:28:22.980Z,24.63
2018-08-13T08:30:52.902Z,26.61
2018-08-13T08:33:22.811Z,23.40
2018-08-13T08:35:52.829Z,25.35
2018-08-13T08:38:22.949Z,23.18
2018-08-13T08:40:52.826Z,23.56
2018-08-13T08:43:22.986Z,24.20
2018-08-13T08:45:52.348Z,21.75
2018-08-13T08:48:22.377Z,22.74
2018-08-13T08:50:52.425Z,22.72
2018-08-13T08:53:21.368Z,23.15
2018-08-13T08:55:50.331Z,25.13
2018-08-13T08:58:19.416Z,23.37
2018-08-13T09:00:48.413Z,25.04
2018-08-13T09:03:17.289Z,25.28
2018-08-13T09:05:46.228Z,24.97
2018-08-13T09:08:15.161Z,24.08
2018-08-13T09:10:44.092Z,24.95
2018-08-13T09:13:13.018Z,26.53
2018-08-13T09:15:41.988Z,23.51
2018-08-13T09:18:22.480Z,23.91
2018-08-13T09:21:02.947Z,23.19
2018-08-13T09:23:44.062Z,22.56
2018-08-13T09:26:24.833Z,22.93
2018-08-13T09:29:05.182Z,22.04
2018-08-13T09:32:16.541Z,23.50
2018-08-13T09:34:56.812Z,23.73
2018-08-13T09:37:25.755Z,21.93
2018-08-13T09:39:54.950Z,20.54
2018-08-13T09:42:24.408Z,21.78
2018-08-13T09:44:54.149Z,19.55
2018-08-13T09:47:23.090Z,19.93
2018-08-13T09:49:52.026Z,20.73
2018-08-13T09:52:20.960Z,22.14
2018-08-13T09:54:49.864Z,22.65
2018-08-13T09:57:18.861Z,22.46
2018-08-13T09:59:48.934Z,22.91
2018-08-13T10:02:17.879Z,21.31
2018-08-13T10:04:47.189Z,21.87
2018-08-13T10:07:16.093Z,20.38
2018-08-13T10:09:45.086Z,21.11
2018-08-13T10:12:16.960Z,21.58
2018-08-13T10:14:45.924Z,20.93
2018-08-13T10:17:14.903Z,21.96
2018-08-13T10:19:43.935Z,21.04
2018-08-13T10:22:12.899Z,19.78
2018-08-13T10:24:41.808Z,19.71
2018-08-13T10:27:10.751Z,20.27
2018-08-13T10:29:39.796Z,20.39
2018-08-13T10:32:09.850Z,21.63
2018-08-13T10:34:39.559Z,20.47
2018-08-13T10:37:09.269Z,19.97
2018-08-13T10:39:39.082Z,21.06
2018-08-13T10:42:09.044Z,20.39
2018-08-13T10:44:37.943Z,19.75
2018-08-13T10:47:06.895Z,21.44
2018-08-13T10:49:35.865Z,20.54
2018-08-13T10:52:05.093Z,20.24
2018-08-13T10:54:34.016Z,22.76
2018-08-13T10:57:02.968Z,20.57
2018-08-13T10:59:31.973Z,22.09
2018-08-13T11:02:00.927Z,18.96
2018-08-13T11:04:29.848Z,19.45
2018-08-13T11:06:58.859Z,19.02
2018-08-13T11:09:27.781Z,20.31
2018-08-13T11:11:56.725Z,18.85
2018-08-13T11:14:26.637Z,17.58
2018-08-13T11:16:56.757Z,19.30
2018-08-13T11:19:25.658Z,18.57
2018-08-13T11:21:54.560Z,21.77
2018-08-13T11:24:23.446Z,19.13
2018-08-13T11:26:52.354Z,18.32
2018-08-13T11:29:21.247Z,17.84
2018-08-13T11:31:50.181Z,17.78
2018-08-13T11:34:19.138Z,18.45
2018-08-13T11:36:48.250Z,19.03
2018-08-13T11:39:17.155Z,20.48
2018-08-13T11:41:46.062Z,21.34
2018-08-13T11:44:14.984Z,21.80
2018-08-13T11:46:43.932Z,21.80
2018-08-13T11:49:14.710Z,22.33
2018-08-13T11:51:44.724Z,21.75
2018-08-13T11:54:13.667Z,22.67
2018-08-13T11:56:44.001Z,22.44
2018-08-13T11:59:13.507Z,23.63
2018-08-13T12:01:42.527Z,22.70
2018-08-13T12:04:11.455Z,21.77
2018-08-13T12:06:40.366Z,22.19
2018-08-13T12:09:11.341Z,23.17
2018-08-13T12:11:40.404Z,21.29
2018-08-13T12:14:09.686Z,22.39
2018-08-13T12:16:38.659Z,21.62
2018-08-13T12:19:07.599Z,20.97
2018-08-13T12:21:37.321Z,20.04
2018-08-13T12:24:07.278Z,20.34
2018-08-13T12:26:37.297Z,19.19
2018-08-13T12:29:07.315Z,19.90
2018-08-13T12:31:37.230Z,20.82
2018-08-13T12:34:06.161Z,19.67
2018-08-13T12:36:35.091Z,19.22
2018-08-13T12:39:06.296Z,21.89
2018-08-13T12:41:35.334Z,22.48
2018-08-13T12:44:04.624Z,22.51
2018-08-13T12:46:33.546Z,23.31
2018-08-13T12:49:02.538Z,20.79
2018-08-13T12:51:31.472Z,21.58
2018-08-13T12:54:00.393Z,21.61
2018-08-13T12:56:29.348Z,18.22
2018-08-13T12:58:58.254Z,18.17
2018-08-13T13:01:27.231Z,19.74
2018-08-13T13:03:57.020Z,17.81
2018-08-13T13:06:27.038Z,18.55
2018-08-13T13:08:57.116Z,20.03
2018-08-13T13:11:27.074Z,20.63
2018-08-13T13:13:55.967Z,20.79
2018-08-13T13:16:25.047Z,21.27
2018-08-13T13:18:54.017Z,20.93
2018-08-13T13:21:23.024Z,19.97
2018-08-13T13:23:52.341Z,20.76
2018-08-13T13:26:21.296Z,21.94
2018-08-13T13:28:50.207Z,19.69
2018-08-13T13:31:19.244Z,20.34
2018-08-13T13:33:48.182Z,20.38
2018-08-13T13:36:17.109Z,21.10
2018-08-13T13:38:46.022Z,20.43
2018-08-13T13:41:15.060Z,21.24
2018-08-13T13:43:43.999Z,20.86
2018-08-13T13:46:12.955Z,22.34
2018-08-13T13:48:41.916Z,20.98
2018-08-13T13:51:10.926Z,20.95
2018-08-13T13:53:39.837Z,23.03
2018-08-13T13:56:08.981Z,22.32
2018-08-13T13:58:38.012Z,25.04
2018-08-13T14:01:06.984Z,23.22
2018-08-13T14:03:35.912Z,24.70
2018-08-13T14:06:04.856Z,25.41
2018-08-13T14:08:33.798Z,24.53
2018-08-13T14:11:02.763Z,24.63
2018-08-13T14:13:32.478Z,25.30
2018-08-13T14:16:01.408Z,26.51
2018-08-13T14:18:30.452Z,24.54
2018-08-13T14:20:59.476Z,27.39
2018-08-13T14:23:28.437Z,28.15
2018-08-13T14:25:57.384Z,26.73
2018-08-13T14:28:26.306Z,26.69
2018-08-13T14:30:55.247Z,27.41
2018-08-13T14:33:24.171Z,26.87
2018-08-13T14:35:53.133Z,26.38
2018-08-13T14:38:22.044Z,27.63
2018-08-13T14:40:51.042Z,26.36
2018-08-13T14:43:19.955Z,26.92
2018-08-13T14:45:48.876Z,27.26
2018-08-13T14:48:17.855Z,28.09
2018-08-13T14:50:46.850Z,28.99
2018-08-13T14:53:16.128Z,28.76
2018-08-13T14:55:45.127Z,28.52
2018-08-13T14:58:14.066Z,29.29
2018-08-13T15:00:42.997Z,29.65
2018-08-13T15:03:12.736Z,29.56
2018-08-13T15:05:41.919Z,30.18
2018-08-13T15:08:10.828Z,30.56
2018-08-13T15:10:39.752Z,30.83
2018-08-13T15:13:08.755Z,30.79
2018-08-13T15:15:37.698Z,31.88
2018-08-13T15:18:06.655Z,33.62
2018-08-13T15:20:35.619Z,32.90
2018-08-13T15:23:04.552Z,34.51
2018-08-13T15:25:33.510Z,34.68
2018-08-13T15:28:02.554Z,35.45
2018-08-13T15:30:31.355Z,34.75
2018-08-13T15:33:00.260Z,35.84
2018-08-13T15:35:29.180Z,35.60
2018-08-13T15:37:58.191Z,35.46
2018-08-13T15:40:28.212Z,36.13
2018-08-13T15:42:57.176Z,37.33
2018-08-13T15:45:26.226Z,37.42
2018-08-13T15:47:55.250Z,38.24
2018-08-13T15:50:24.397Z,38.10
2018-08-13T15:52:53.612Z,38.09
2018-08-13T15:55:22.555Z,38.44
2018-08-13T15:57:51.535Z,37.80
2018-08-13T16:00:22.738Z,38.38
2018-08-13T16:02:52.035Z,38.72
2018-08-13T16:05:21.452Z,38.99
2018-08-13T16:07:50.652Z,38.42
2018-08-13T16:10:19.852Z,39.06
2018-08-13T16:12:48.878Z,39.42
2018-08-13T16:15:17.865Z,39.88
2018-08-13T16:17:46.784Z,40.14
2018-08-13T16:20:17.636Z,40.59
2018-08-13T16:22:47.309Z,42.03
2018-08-13T16:25:16.863Z,42.55
2018-08-13T16:27:46.527Z,42.61
2018-08-13T16:30:24.163Z,43.75
2018-08-13T16:32:53.168Z,42.55
2018-08-13T16:35:22.970Z,42.58
2018-08-13T16:37:51.909Z,42.25
2018-08-13T16:40:21.074Z,42.30
2018-08-13T16:42:50.499Z,43.29
2018-08-13T16:45:20.500Z,43.12
2018-08-13T16:47:49.513Z,43.78
2018-08-13T16:50:22.469Z,43.46
2018-08-13T16:52:51.716Z,44.25
2018-08-13T16:55:20.645Z,43.99
2018-08-13T16:57:49.610Z,44.58
2018-08-13T17:00:22.759Z,43.95
2018-08-13T17:02:51.961Z,44.96
2018-08-13T17:05:21.055Z,44.65
2018-08-13T17:07:50.264Z,44.47
2018-08-13T17:10:21.376Z,44.48
2018-08-13T17:12:50.901Z,44.12
2018-08-13T17:15:21.957Z,44.81
2018-08-13T17:17:52.467Z,45.69
2018-08-13T17:20:25.411Z,46.35
2018-08-13T17:22:54.380Z,46.65
2018-08-13T17:25:23.315Z,47.01
2018-08-13T17:27:52.321Z,47.23
2018-08-13T17:30:22.888Z,47.56
2018-08-13T17:32:52.984Z,47.50
2018-08-13T17:35:28.232Z,48.38
2018-08-13T17:37:57.348Z,48.13
2018-08-13T17:40:26.349Z,48.49
2018-08-13T17:42:56.020Z,48.78
2018-08-13T17:45:25.165Z,48.95
2018-08-13T17:47:54.117Z,49.46
2018-08-13T17:50:23.221Z,49.82
2018-08-13T17:52:52.247Z,49.83
2018-08-13T17:55:21.243Z,50.00
2018-08-13T17:57:50.190Z,50.39
2018-08-13T18:00:20.338Z,50.32
2018-08-13T18:02:49.423Z,50.45
2018-08-13T18:05:20.393Z,51.27
2018-08-13T18:07:49.880Z,50.88
2018-08-13T18:10:25.216Z,50.96
2018-08-13T18:12:54.420Z,51.89
2018-08-13T18:15:23.332Z,50.88
2018-08-13T18:17:52.247Z,51.01
2018-08-13T18:20:21.259Z,51.50
2018-08-13T18:22:50.254Z,52.10
2018-08-13T18:25:19.439Z,52.19
2018-08-13T18:27:49.452Z,52.64
2018-08-13T18:30:20.473Z,52.97
2018-08-13T18:32:49.456Z,53.08
2018-08-13T18:35:18.407Z,53.73
2018-08-13T18:37:47.343Z,53.28
2018-08-13T18:40:20.437Z,53.62
2018-08-13T18:42:49.504Z,54.03
2018-08-13T18:45:18.441Z,54.11
2018-08-13T18:47:48.112Z,53.72
2018-08-13T18:50:18.232Z,55.05
2018-08-13T18:52:47.325Z,54.05
2018-08-13T18:55:17.523Z,54.94
2018-08-13T18:57:46.760Z,54.33
2018-08-13T19:00:20.960Z,55.88
2018-08-13T19:02:49.941Z,55.24
2018-08-13T19:05:19.577Z,55.35
2018-08-13T19:07:48.757Z,55.94
2018-08-13T19:10:18.418Z,55.64
2018-08-13T19:12:47.399Z,55.90
2018-08-13T19:15:19.641Z,55.38
2018-08-13T19:17:48.829Z,54.37
2018-08-13T19:20:17.995Z,55.67
2018-08-13T19:22:47.218Z,55.90
2018-08-13T19:25:19.447Z,55.88
2018-08-13T19:27:48.432Z,59.58
2018-08-13T19:30:18.493Z,59.07
2018-08-13T19:32:49.668Z,58.83
2018-08-13T19:35:18.665Z,59.08
2018-08-13T19:37:47.866Z,59.10
2018-08-13T19:40:18.611Z,58.56
2018-08-13T19:42:48.485Z,57.33
2018-08-13T19:45:18.443Z,56.25
2018-08-13T19:47:47.747Z,56.33
2018-08-13T19:50:16.999Z,56.94
2018-08-13T19:52:47.256Z,57.19
2018-08-13T19:55:16.678Z,57.46
2018-08-13T19:57:45.648Z,57.52
2018-08-13T20:00:20.273Z,59.02
2018-08-13T20:02:49.571Z,59.91
2018-08-13T20:05:20.065Z,62.69
2018-08-13T20:07:49.104Z,65.37
2018-08-13T20:10:18.031Z,68.40
2018-08-13T20:12:47.432Z,71.03
2018-08-13T20:15:16.436Z,69.39
2018-08-13T20:17:46.076Z,71.57
2018-08-13T20:20:16.478Z,73.67
2018-08-13T20:22:46.269Z,74.89
2018-08-13T20:25:16.621Z,76.11
2018-08-13T20:27:45.960Z,76.77
2018-08-13T20:30:17.267Z,79.00
2018-08-13T20:32:47.568Z,77.58
2018-08-13T20:35:16.580Z,78.70
2018-08-13T20:37:45.664Z,76.37
2018-08-13T20:40:16.443Z,76.93
2018-08-13T20:42:46.230Z,77.96
2018-08-13T20:45:16.999Z,77.16
2018-08-13T20:47:46.483Z,76.99
2018-08-13T20:50:18.439Z,75.95
2018-08-13T20:52:48.346Z,77.71
2018-08-13T20:55:20.847Z,78.79
2018-08-13T20:57:50.219Z,79.28
2018-08-13T21:00:20.748Z,80.53
2018-08-13T21:02:49.727Z,81.25
2018-08-13T21:05:18.878Z,81.14
2018-08-13T21:07:49.031Z,80.44
2018-08-13T21:10:20.308Z,76.98
2018-08-13T21:12:50.899Z,76.88
2018-08-13T21:15:20.014Z,76.28
2018-08-13T21:17:49.003Z,75.64
2018-08-13T21:21:26.699Z,76.21
2018-08-13T21:23:55.730Z,76.10
2018-08-13T21:26:24.727Z,76.50
2018-08-13T21:28:53.728Z,76.15
2018-08-13T21:31:22.818Z,74.62
2018-08-13T21:33:51.988Z,75.08
2018-08-13T21:36:22.299Z,74.63
2018-08-13T21:38:51.260Z,73.39
2018-08-13T21:41:20.249Z,73.45
2018-08-13T21:43:49.278Z,73.42
2018-08-13T21:46:18.326Z,72.44
2018-08-13T21:48:47.488Z,72.86
2018-08-13T21:51:18.567Z,73.83
2018-08-13T21:53:47.538Z,72.61
2018-08-13T21:56:17.179Z,74.20
2018-08-13T21:58:46.492Z,73.82
2018-08-13T22:01:20.798Z,73.91
2018-08-13T22:03:49.855Z,73.57
2018-08-13T22:06:18.850Z,73.10
2018-08-13T22:08:47.775Z,71.51
2018-08-13T22:11:16.703Z,72.18
2018-08-13T22:13:45.662Z,72.24
2018-08-13T22:16:14.613Z,72.25
2018-08-13T22:18:44.097Z,72.90
2018-08-13T22:21:13.361Z,73.20
2018-08-13T22:23:53.823Z,73.81
2018-08-13T22:26:22.949Z,72.46
2018-08-13T22:28:51.894Z,71.40
2018-08-13T22:31:20.853Z,70.36
2018-08-13T22:33:50.064Z,69.70
2018-08-13T22:36:21.817Z,69.34
2018-08-13T22:38:50.833Z,70.51
2018-08-13T22:41:19.775Z,71.91
2018-08-13T22:43:48.780Z,72.15
2018-08-13T22:46:17.720Z,73.11
2018-08-13T22:48:46.686Z,72.05
2018-08-13T22:51:15.648Z,71.29
2018-08-13T22:53:44.902Z,71.84
2018-08-13T22:56:18.009Z,71.33
2018-08-13T22:58:47.047Z,72.38
2018-08-13T23:01:16.743Z,72.01
2018-08-13T23:03:46.228Z,70.58
2018-08-13T23:06:15.224Z,70.08
2018-08-13T23:08:45.279Z,70.32
2018-08-13T23:11:14.258Z,71.29
2018-08-13T23:13:43.663Z,70.52
2018-08-13T23:16:12.709Z,71.74
2018-08-13T23:18:41.677Z,70.63
2018-08-13T23:21:10.643Z,70.45
2018-08-13T23:23:39.674Z,70.63
2018-08-13T23:26:09.108Z,70.88
2018-08-13T23:28:38.065Z,71.00
2018-08-13T23:31:06.991Z,71.01
2018-08-13T23:33:36.006Z,72.19
2018-08-13T23:36:05.103Z,71.28
2018-08-13T23:38:34.636Z,71.59
2018-08-13T23:41:03.777Z,71.85
2018-08-13T23:43:32.763Z,72.78
2018-08-13T23:46:01.833Z,72.57
2018-08-13T23:48:31.735Z,72.54
2018-08-13T23:51:00.765Z,73.28
2018-08-13T23:53:29.959Z,72.71
2018-08-13T23:55:58.915Z,73.90
2018-08-13T23:58:28.664Z,73.22
